sensor_id;sensor_type;location;lat;lon;timestamp;P1;durP1;ratioP1;P2;durP2;ratioP2
6288;SDS011;3177;49.880;8.836;2024-03-02T00:00:39;5.80;;;5.20;;
6288;SDS011;3177;49.880;8.836;2024-03-02T00:03:06;10.43;;;5.70;;
6288;SDS011;3177;49.880;8.836;2024-03-02T00:05:35;7.57;;;5.10;;
6288;SDS011;3177;49.880;8.836;2024-03-02T00:08:03;10.07;;;5.63;;
6288;SDS011;3177;49.880;8.836;2024-03-02T00:10:33;8.43;;;6.73;;
6288;SDS011;3177;49.880;8.836;2024-03-02T00:13:04;8.53;;;6.13;;
6288;SDS011;3177;49.880;8.836;2024-03-02T00:15:41;6.93;;;6.23;;
6288;SDS011;3177;49.880;8.836;2024-03-02T00:18:09;6.47;;;5.77;;
6288;SDS011;3177;49.880;8.836;2024-03-02T00:20:38;7.83;;;6.57;;
6288;SDS011;3177;49.880;8.836;2024-03-02T00:23:06;10.83;;;6.87;;
6288;SDS011;3177;49.880;8.836;2024-03-02T00:25:37;10.27;;;6.70;;
6288;SDS011;3177;49.880;8.836;2024-03-02T00:28:05;8.70;;;6.90;;
6288;SDS011;3177;49.880;8.836;2024-03-02T00:30:40;10.83;;;6.90;;
6288;SDS011;3177;49.880;8.836;2024-03-02T00:33:13;12.13;;;6.77;;
6288;SDS011;3177;49.880;8.836;2024-03-02T00:35:41;7.03;;;5.63;;
6288;SDS011;3177;49.880;8.836;2024-03-02T00:38:10;8.87;;;6.70;;
6288;SDS011;3177;49.880;8.836;2024-03-02T00:40:38;7.20;;;5.80;;
6288;SDS011;3177;49.880;8.836;2024-03-02T00:43:05;9.90;;;6.43;;
6288;SDS011;3177;49.880;8.836;2024-03-02T00:45:32;8.53;;;5.80;;
6288;SDS011;3177;49.880;8.836;2024-03-02T00:47:59;7.70;;;6.23;;
6288;SDS011;3177;49.880;8.836;2024-03-02T00:50:26;12.27;;;6.83;;
6288;SDS011;3177;49.880;8.836;2024-03-02T00:52:54;8.60;;;6.17;;
6288;SDS011;3177;49.880;8.836;2024-03-02T00:55:21;6.13;;;5.60;;
6288;SDS011;3177;49.880;8.836;2024-03-02T00:57:48;7.30;;;6.30;;
6288;SDS011;3177;49.880;8.836;2024-03-02T01:00:15;6.53;;;5.83;;
6288;SDS011;3177;49.880;8.836;2024-03-02T01:02:43;6.60;;;5.47;;
6288;SDS011;3177;49.880;8.836;2024-03-02T01:05:11;7.37;;;5.50;;
6288;SDS011;3177;49.880;8.836;2024-03-02T01:07:38;8.53;;;6.20;;
6288;SDS011;3177;49.880;8.836;2024-03-02T01:10:07;6.43;;;5.70;;
6288;SDS011;3177;49.880;8.836;2024-03-02T01:12:34;5.80;;;5.20;;
6288;SDS011;3177;49.880;8.836;2024-03-02T01:15:02;6.80;;;5.90;;
6288;SDS011;3177;49.880;8.836;2024-03-02T01:17:33;7.83;;;6.23;;
6288;SDS011;3177;49.880;8.836;2024-03-02T01:20:00;17.77;;;6.50;;
6288;SDS011;3177;49.880;8.836;2024-03-02T01:22:27;9.67;;;6.87;;
6288;SDS011;3177;49.880;8.836;2024-03-02T01:24:54;6.10;;;5.37;;
6288;SDS011;3177;49.880;8.836;2024-03-02T01:27:22;8.90;;;6.93;;
6288;SDS011;3177;49.880;8.836;2024-03-02T01:29:49;9.33;;;6.43;;
6288;SDS011;3177;49.880;8.836;2024-03-02T01:32:16;7.13;;;5.87;;
6288;SDS011;3177;49.880;8.836;2024-03-02T01:34:43;9.07;;;6.07;;
6288;SDS011;3177;49.880;8.836;2024-03-02T01:37:10;7.40;;;5.47;;
6288;SDS011;3177;49.880;8.836;2024-03-02T01:39:37;5.90;;;5.30;;
6288;SDS011;3177;49.880;8.836;2024-03-02T01:42:11;6.47;;;5.83;;
6288;SDS011;3177;49.880;8.836;2024-03-02T01:44:40;7.37;;;5.57;;
6288;SDS011;3177;49.880;8.836;2024-03-02T01:47:07;6.57;;;5.57;;
6288;SDS011;3177;49.880;8.836;2024-03-02T01:49:34;7.73;;;6.20;;
6288;SDS011;3177;49.880;8.836;2024-03-02T01:52:03;7.50;;;5.80;;
6288;SDS011;3177;49.880;8.836;2024-03-02T01:54:30;8.00;;;5.97;;
6288;SDS011;3177;49.880;8.836;2024-03-02T01:56:57;7.77;;;6.00;;
6288;SDS011;3177;49.880;8.836;2024-03-02T01:59:25;9.17;;;6.03;;
6288;SDS011;3177;49.880;8.836;2024-03-02T02:01:53;5.60;;;5.10;;
6288;SDS011;3177;49.880;8.836;2024-03-02T02:04:20;9.30;;;5.43;;
6288;SDS011;3177;49.880;8.836;2024-03-02T02:06:52;5.67;;;5.17;;
6288;SDS011;3177;49.880;8.836;2024-03-02T02:09:19;5.97;;;4.90;;
6288;SDS011;3177;49.880;8.836;2024-03-02T02:11:46;7.87;;;5.70;;
6288;SDS011;3177;49.880;8.836;2024-03-02T02:14:13;6.80;;;5.60;;
6288;SDS011;3177;49.880;8.836;2024-03-02T02:16:40;7.43;;;5.40;;
6288;SDS011;3177;49.880;8.836;2024-03-02T02:19:09;6.27;;;4.80;;
6288;SDS011;3177;49.880;8.836;2024-03-02T02:21:37;6.70;;;5.17;;
6288;SDS011;3177;49.880;8.836;2024-03-02T02:24:04;7.50;;;5.57;;
6288;SDS011;3177;49.880;8.836;2024-03-02T02:26:31;7.03;;;6.03;;
6288;SDS011;3177;49.880;8.836;2024-03-02T02:28:58;8.63;;;5.93;;
6288;SDS011;3177;49.880;8.836;2024-03-02T02:31:25;5.97;;;5.37;;
6288;SDS011;3177;49.880;8.836;2024-03-02T02:33:52;9.73;;;5.67;;
6288;SDS011;3177;49.880;8.836;2024-03-02T02:36:20;7.10;;;6.33;;
6288;SDS011;3177;49.880;8.836;2024-03-02T02:38:48;9.10;;;6.07;;
6288;SDS011;3177;49.880;8.836;2024-03-02T02:41:15;10.27;;;5.90;;
6288;SDS011;3177;49.880;8.836;2024-03-02T02:43:42;8.70;;;6.17;;
6288;SDS011;3177;49.880;8.836;2024-03-02T02:46:09;10.07;;;5.83;;
6288;SDS011;3177;49.880;8.836;2024-03-02T02:48:36;7.63;;;6.20;;
6288;SDS011;3177;49.880;8.836;2024-03-02T02:51:03;6.97;;;5.33;;
6288;SDS011;3177;49.880;8.836;2024-03-02T02:53:31;8.07;;;6.27;;
6288;SDS011;3177;49.880;8.836;2024-03-02T02:56:01;7.93;;;6.00;;
6288;SDS011;3177;49.880;8.836;2024-03-02T02:58:28;6.77;;;5.73;;
6288;SDS011;3177;49.880;8.836;2024-03-02T03:00:55;8.33;;;6.13;;
6288;SDS011;3177;49.880;8.836;2024-03-02T03:03:22;7.73;;;5.80;;
6288;SDS011;3177;49.880;8.836;2024-03-02T03:05:49;6.73;;;6.07;;
6288;SDS011;3177;49.880;8.836;2024-03-02T03:08:16;7.93;;;6.00;;
6288;SDS011;3177;49.880;8.836;2024-03-02T03:10:43;7.77;;;5.90;;
6288;SDS011;3177;49.880;8.836;2024-03-02T03:13:12;6.00;;;5.27;;
6288;SDS011;3177;49.880;8.836;2024-03-02T03:15:39;11.13;;;6.57;;
6288;SDS011;3177;49.880;8.836;2024-03-02T03:18:06;6.87;;;5.70;;
6288;SDS011;3177;49.880;8.836;2024-03-02T03:20:35;9.10;;;5.80;;
6288;SDS011;3177;49.880;8.836;2024-03-02T03:23:02;7.83;;;6.07;;
6288;SDS011;3177;49.880;8.836;2024-03-02T03:25:30;7.77;;;6.37;;
6288;SDS011;3177;49.880;8.836;2024-03-02T03:27:57;8.87;;;5.63;;
6288;SDS011;3177;49.880;8.836;2024-03-02T03:30:25;8.97;;;6.13;;
6288;SDS011;3177;49.880;8.836;2024-03-02T03:32:52;8.73;;;6.10;;
6288;SDS011;3177;49.880;8.836;2024-03-02T03:35:19;9.10;;;5.93;;
6288;SDS011;3177;49.880;8.836;2024-03-02T03:37:46;8.63;;;6.13;;
6288;SDS011;3177;49.880;8.836;2024-03-02T03:40:13;9.53;;;6.03;;
6288;SDS011;3177;49.880;8.836;2024-03-02T03:42:40;7.90;;;5.67;;
6288;SDS011;3177;49.880;8.836;2024-03-02T03:45:07;7.30;;;5.53;;
6288;SDS011;3177;49.880;8.836;2024-03-02T03:47:36;8.50;;;6.03;;
6288;SDS011;3177;49.880;8.836;2024-03-02T03:50:03;8.20;;;5.57;;
6288;SDS011;3177;49.880;8.836;2024-03-02T03:52:32;6.90;;;4.60;;
6288;SDS011;3177;49.880;8.836;2024-03-02T03:54:59;7.07;;;5.57;;
6288;SDS011;3177;49.880;8.836;2024-03-02T03:57:26;6.27;;;5.67;;
6288;SDS011;3177;49.880;8.836;2024-03-02T03:59:53;8.13;;;5.60;;
6288;SDS011;3177;49.880;8.836;2024-03-02T04:02:20;9.23;;;6.17;;
6288;SDS011;3177;49.880;8.836;2024-03-02T04:04:48;7.77;;;5.83;;
6288;SDS011;3177;49.880;8.836;2024-03-02T04:07:15;12.27;;;7.20;;
6288;SDS011;3177;49.880;8.836;2024-03-02T04:09:43;8.03;;;5.50;;
6288;SDS011;3177;49.880;8.836;2024-03-02T04:12:10;7.87;;;5.30;;
6288;SDS011;3177;49.880;8.836;2024-03-02T04:14:38;7.23;;;6.03;;
6288;SDS011;3177;49.880;8.836;2024-03-02T04:17:07;8.87;;;5.50;;
6288;SDS011;3177;49.880;8.836;2024-03-02T04:19:35;7.13;;;5.90;;
6288;SDS011;3177;49.880;8.836;2024-03-02T04:22:03;11.17;;;6.33;;
6288;SDS011;3177;49.880;8.836;2024-03-02T04:24:30;7.70;;;6.30;;
6288;SDS011;3177;49.880;8.836;2024-03-02T04:26:58;9.93;;;5.63;;
6288;SDS011;3177;49.880;8.836;2024-03-02T04:29:25;5.57;;;4.97;;
6288;SDS011;3177;49.880;8.836;2024-03-02T04:31:52;8.03;;;6.17;;
6288;SDS011;3177;49.880;8.836;2024-03-02T04:34:19;8.57;;;5.70;;
6288;SDS011;3177;49.880;8.836;2024-03-02T04:36:46;9.03;;;6.63;;
6288;SDS011;3177;49.880;8.836;2024-03-02T04:39:14;9.73;;;6.50;;
6288;SDS011;3177;49.880;8.836;2024-03-02T04:41:41;9.33;;;6.60;;
6288;SDS011;3177;49.880;8.836;2024-03-02T04:44:08;9.07;;;6.67;;
6288;SDS011;3177;49.880;8.836;2024-03-02T04:46:35;10.80;;;7.47;;
6288;SDS011;3177;49.880;8.836;2024-03-02T04:49:02;11.67;;;8.13;;
6288;SDS011;3177;49.880;8.836;2024-03-02T04:51:29;8.20;;;6.03;;
6288;SDS011;3177;49.880;8.836;2024-03-02T04:53:56;7.77;;;6.47;;
6288;SDS011;3177;49.880;8.836;2024-03-02T04:56:25;10.10;;;6.47;;
6288;SDS011;3177;49.880;8.836;2024-03-02T04:59:06;8.97;;;6.53;;
6288;SDS011;3177;49.880;8.836;2024-03-02T05:01:33;9.90;;;7.70;;
6288;SDS011;3177;49.880;8.836;2024-03-02T05:04:00;11.27;;;7.40;;
6288;SDS011;3177;49.880;8.836;2024-03-02T05:06:27;8.53;;;6.40;;
6288;SDS011;3177;49.880;8.836;2024-03-02T05:08:54;12.00;;;7.03;;
6288;SDS011;3177;49.880;8.836;2024-03-02T05:11:22;8.13;;;6.80;;
6288;SDS011;3177;49.880;8.836;2024-03-02T05:14:14;11.87;;;7.00;;
6288;SDS011;3177;49.880;8.836;2024-03-02T05:16:41;10.17;;;6.70;;
6288;SDS011;3177;49.880;8.836;2024-03-02T05:19:08;8.57;;;6.13;;
6288;SDS011;3177;49.880;8.836;2024-03-02T05:21:35;9.90;;;7.40;;
6288;SDS011;3177;49.880;8.836;2024-03-02T05:24:02;10.10;;;7.67;;
6288;SDS011;3177;49.880;8.836;2024-03-02T05:26:30;12.60;;;8.47;;
6288;SDS011;3177;49.880;8.836;2024-03-02T05:28:57;13.47;;;8.60;;
6288;SDS011;3177;49.880;8.836;2024-03-02T05:31:25;11.07;;;7.80;;
6288;SDS011;3177;49.880;8.836;2024-03-02T05:33:52;12.37;;;8.70;;
6288;SDS011;3177;49.880;8.836;2024-03-02T05:36:19;14.73;;;7.87;;
6288;SDS011;3177;49.880;8.836;2024-03-02T05:38:46;13.80;;;7.90;;
6288;SDS011;3177;49.880;8.836;2024-03-02T05:41:14;9.10;;;7.60;;
6288;SDS011;3177;49.880;8.836;2024-03-02T05:43:41;13.67;;;9.30;;
6288;SDS011;3177;49.880;8.836;2024-03-02T05:46:08;13.00;;;8.53;;
6288;SDS011;3177;49.880;8.836;2024-03-02T05:48:37;12.40;;;8.20;;
6288;SDS011;3177;49.880;8.836;2024-03-02T05:51:04;12.80;;;8.40;;
6288;SDS011;3177;49.880;8.836;2024-03-02T05:53:31;14.07;;;8.47;;
6288;SDS011;3177;49.880;8.836;2024-03-02T05:55:58;15.07;;;8.53;;
6288;SDS011;3177;49.880;8.836;2024-03-02T05:58:25;17.30;;;9.57;;
6288;SDS011;3177;49.880;8.836;2024-03-02T06:01:03;16.60;;;8.83;;
6288;SDS011;3177;49.880;8.836;2024-03-02T06:03:30;10.33;;;8.23;;
6288;SDS011;3177;49.880;8.836;2024-03-02T06:05:59;14.73;;;9.53;;
6288;SDS011;3177;49.880;8.836;2024-03-02T06:08:26;18.00;;;8.67;;
6288;SDS011;3177;49.880;8.836;2024-03-02T06:10:53;16.60;;;8.67;;
6288;SDS011;3177;49.880;8.836;2024-03-02T06:13:21;16.13;;;9.10;;
6288;SDS011;3177;49.880;8.836;2024-03-02T06:15:48;12.77;;;8.00;;
6288;SDS011;3177;49.880;8.836;2024-03-02T06:18:15;16.53;;;9.53;;
6288;SDS011;3177;49.880;8.836;2024-03-02T06:20:42;15.47;;;8.93;;
6288;SDS011;3177;49.880;8.836;2024-03-02T06:23:10;17.90;;;8.97;;
6288;SDS011;3177;49.880;8.836;2024-03-02T06:25:37;12.80;;;8.47;;
6288;SDS011;3177;49.880;8.836;2024-03-02T06:28:04;16.23;;;9.50;;
6288;SDS011;3177;49.880;8.836;2024-03-02T06:30:32;16.63;;;10.23;;
6288;SDS011;3177;49.880;8.836;2024-03-02T06:32:59;14.93;;;9.70;;
6288;SDS011;3177;49.880;8.836;2024-03-02T06:35:26;22.53;;;11.07;;
6288;SDS011;3177;49.880;8.836;2024-03-02T06:37:53;18.20;;;10.03;;
6288;SDS011;3177;49.880;8.836;2024-03-02T06:40:21;15.40;;;8.73;;
6288;SDS011;3177;49.880;8.836;2024-03-02T06:42:48;15.60;;;9.97;;
6288;SDS011;3177;49.880;8.836;2024-03-02T06:45:15;18.87;;;10.83;;
6288;SDS011;3177;49.880;8.836;2024-03-02T06:47:42;14.03;;;9.40;;
6288;SDS011;3177;49.880;8.836;2024-03-02T06:50:09;19.37;;;11.37;;
6288;SDS011;3177;49.880;8.836;2024-03-02T06:52:37;17.27;;;10.57;;
6288;SDS011;3177;49.880;8.836;2024-03-02T06:55:04;25.60;;;12.93;;
6288;SDS011;3177;49.880;8.836;2024-03-02T06:57:32;26.20;;;13.40;;
6288;SDS011;3177;49.880;8.836;2024-03-02T06:59:59;14.07;;;10.73;;
6288;SDS011;3177;49.880;8.836;2024-03-02T07:02:30;24.17;;;12.07;;
6288;SDS011;3177;49.880;8.836;2024-03-02T07:04:57;19.70;;;11.17;;
6288;SDS011;3177;49.880;8.836;2024-03-02T07:07:24;20.03;;;12.37;;
6288;SDS011;3177;49.880;8.836;2024-03-02T07:09:51;29.30;;;16.37;;
6288;SDS011;3177;49.880;8.836;2024-03-02T07:12:18;23.23;;;12.70;;
6288;SDS011;3177;49.880;8.836;2024-03-02T07:14:47;20.40;;;11.37;;
6288;SDS011;3177;49.880;8.836;2024-03-02T07:17:32;21.67;;;11.13;;
6288;SDS011;3177;49.880;8.836;2024-03-02T07:20:02;25.07;;;11.17;;
6288;SDS011;3177;49.880;8.836;2024-03-02T07:22:29;24.13;;;11.77;;
6288;SDS011;3177;49.880;8.836;2024-03-02T07:24:56;19.87;;;11.83;;
6288;SDS011;3177;49.880;8.836;2024-03-02T07:27:23;19.40;;;10.77;;
6288;SDS011;3177;49.880;8.836;2024-03-02T07:29:52;17.23;;;10.40;;
6288;SDS011;3177;49.880;8.836;2024-03-02T07:32:19;18.23;;;10.67;;
6288;SDS011;3177;49.880;8.836;2024-03-02T07:34:46;22.37;;;11.07;;
6288;SDS011;3177;49.880;8.836;2024-03-02T07:37:13;21.67;;;12.37;;
6288;SDS011;3177;49.880;8.836;2024-03-02T07:39:40;24.33;;;12.63;;
6288;SDS011;3177;49.880;8.836;2024-03-02T07:42:07;18.37;;;10.63;;
6288;SDS011;3177;49.880;8.836;2024-03-02T07:44:34;18.37;;;11.53;;
6288;SDS011;3177;49.880;8.836;2024-03-02T07:47:04;17.50;;;10.70;;
6288;SDS011;3177;49.880;8.836;2024-03-02T07:49:31;22.00;;;11.90;;
6288;SDS011;3177;49.880;8.836;2024-03-02T07:51:58;22.40;;;11.97;;
6288;SDS011;3177;49.880;8.836;2024-03-02T07:54:25;22.43;;;11.60;;
6288;SDS011;3177;49.880;8.836;2024-03-02T07:56:52;18.97;;;11.43;;
6288;SDS011;3177;49.880;8.836;2024-03-02T07:59:19;21.37;;;11.80;;
6288;SDS011;3177;49.880;8.836;2024-03-02T08:01:47;19.67;;;10.30;;
6288;SDS011;3177;49.880;8.836;2024-03-02T08:04:15;25.23;;;12.33;;
6288;SDS011;3177;49.880;8.836;2024-03-02T08:06:42;19.67;;;11.40;;
6288;SDS011;3177;49.880;8.836;2024-03-02T08:09:09;26.07;;;14.00;;
6288;SDS011;3177;49.880;8.836;2024-03-02T08:11:36;21.43;;;11.63;;
6288;SDS011;3177;49.880;8.836;2024-03-02T08:14:03;23.20;;;13.73;;
6288;SDS011;3177;49.880;8.836;2024-03-02T08:16:30;25.63;;;15.10;;
6288;SDS011;3177;49.880;8.836;2024-03-02T08:18:58;29.13;;;13.90;;
6288;SDS011;3177;49.880;8.836;2024-03-02T08:21:26;32.07;;;13.97;;
6288;SDS011;3177;49.880;8.836;2024-03-02T08:23:55;27.73;;;13.93;;
6288;SDS011;3177;49.880;8.836;2024-03-02T08:26:22;25.50;;;13.73;;
6288;SDS011;3177;49.880;8.836;2024-03-02T08:28:49;30.00;;;14.77;;
6288;SDS011;3177;49.880;8.836;2024-03-02T08:31:17;32.67;;;14.57;;
6288;SDS011;3177;49.880;8.836;2024-03-02T08:33:44;32.93;;;13.70;;
6288;SDS011;3177;49.880;8.836;2024-03-02T08:36:11;35.60;;;15.30;;
6288;SDS011;3177;49.880;8.836;2024-03-02T08:38:40;36.33;;;15.87;;
6288;SDS011;3177;49.880;8.836;2024-03-02T08:41:07;37.30;;;15.27;;
6288;SDS011;3177;49.880;8.836;2024-03-02T08:43:34;47.27;;;16.67;;
6288;SDS011;3177;49.880;8.836;2024-03-02T08:46:01;46.03;;;17.73;;
6288;SDS011;3177;49.880;8.836;2024-03-02T08:48:28;43.47;;;17.37;;
6288;SDS011;3177;49.880;8.836;2024-03-02T08:50:55;46.10;;;20.77;;
6288;SDS011;3177;49.880;8.836;2024-03-02T08:53:22;49.70;;;20.40;;
6288;SDS011;3177;49.880;8.836;2024-03-02T08:55:50;42.93;;;20.43;;
6288;SDS011;3177;49.880;8.836;2024-03-02T08:58:17;55.27;;;23.27;;
6288;SDS011;3177;49.880;8.836;2024-03-02T09:00:47;55.53;;;23.73;;
6288;SDS011;3177;49.880;8.836;2024-03-02T09:03:14;50.67;;;23.43;;
6288;SDS011;3177;49.880;8.836;2024-03-02T09:05:41;62.43;;;25.60;;
6288;SDS011;3177;49.880;8.836;2024-03-02T09:08:08;64.33;;;25.07;;
6288;SDS011;3177;49.880;8.836;2024-03-02T09:10:35;64.03;;;25.23;;
6288;SDS011;3177;49.880;8.836;2024-03-02T09:13:04;72.87;;;26.60;;
6288;SDS011;3177;49.880;8.836;2024-03-02T09:15:39;68.63;;;25.27;;
6288;SDS011;3177;49.880;8.836;2024-03-02T09:18:06;64.33;;;25.77;;
6288;SDS011;3177;49.880;8.836;2024-03-02T09:20:33;66.37;;;24.73;;
6288;SDS011;3177;49.880;8.836;2024-03-02T09:23:00;61.00;;;24.93;;
6288;SDS011;3177;49.880;8.836;2024-03-02T09:25:27;69.10;;;25.77;;
6288;SDS011;3177;49.880;8.836;2024-03-02T09:27:54;69.37;;;25.27;;
6288;SDS011;3177;49.880;8.836;2024-03-02T09:30:23;65.63;;;24.57;;
6288;SDS011;3177;49.880;8.836;2024-03-02T09:32:54;64.00;;;25.07;;
6288;SDS011;3177;49.880;8.836;2024-03-02T09:35:21;66.80;;;23.90;;
6288;SDS011;3177;49.880;8.836;2024-03-02T09:37:48;72.10;;;25.83;;
6288;SDS011;3177;49.880;8.836;2024-03-02T09:40:15;61.03;;;25.37;;
6288;SDS011;3177;49.880;8.836;2024-03-02T09:42:42;64.47;;;25.17;;
6288;SDS011;3177;49.880;8.836;2024-03-02T09:45:09;70.67;;;26.63;;
6288;SDS011;3177;49.880;8.836;2024-03-02T09:47:38;77.40;;;27.77;;
6288;SDS011;3177;49.880;8.836;2024-03-02T09:50:06;69.53;;;27.90;;
6288;SDS011;3177;49.880;8.836;2024-03-02T09:52:33;71.40;;;26.90;;
6288;SDS011;3177;49.880;8.836;2024-03-02T09:55:00;75.83;;;28.03;;
6288;SDS011;3177;49.880;8.836;2024-03-02T09:57:27;73.17;;;28.17;;
6288;SDS011;3177;49.880;8.836;2024-03-02T09:59:54;67.40;;;27.77;;
6288;SDS011;3177;49.880;8.836;2024-03-02T10:02:21;62.73;;;28.33;;
6288;SDS011;3177;49.880;8.836;2024-03-02T10:04:51;77.23;;;28.60;;
6288;SDS011;3177;49.880;8.836;2024-03-02T10:07:18;71.57;;;28.93;;
6288;SDS011;3177;49.880;8.836;2024-03-02T10:09:46;62.57;;;26.10;;
6288;SDS011;3177;49.880;8.836;2024-03-02T10:12:14;57.23;;;25.13;;
6288;SDS011;3177;49.880;8.836;2024-03-02T10:14:42;59.80;;;26.43;;
6288;SDS011;3177;49.880;8.836;2024-03-02T10:17:10;50.03;;;22.27;;
6288;SDS011;3177;49.880;8.836;2024-03-02T10:19:38;46.10;;;21.50;;
6288;SDS011;3177;49.880;8.836;2024-03-02T10:22:06;49.07;;;23.90;;
6288;SDS011;3177;49.880;8.836;2024-03-02T10:24:37;40.30;;;19.70;;
6288;SDS011;3177;49.880;8.836;2024-03-02T10:27:09;29.43;;;16.77;;
6288;SDS011;3177;49.880;8.836;2024-03-02T10:29:37;33.70;;;17.70;;
6288;SDS011;3177;49.880;8.836;2024-03-02T10:32:05;29.60;;;16.00;;
6288;SDS011;3177;49.880;8.836;2024-03-02T10:34:32;23.93;;;13.23;;
6288;SDS011;3177;49.880;8.836;2024-03-02T10:36:59;14.30;;;10.23;;
6288;SDS011;3177;49.880;8.836;2024-03-02T10:39:28;13.00;;;9.03;;
6288;SDS011;3177;49.880;8.836;2024-03-02T10:41:56;12.10;;;8.87;;
6288;SDS011;3177;49.880;8.836;2024-03-02T10:44:24;11.27;;;7.53;;
6288;SDS011;3177;49.880;8.836;2024-03-02T10:46:52;9.03;;;7.13;;
6288;SDS011;3177;49.880;8.836;2024-03-02T10:49:20;8.47;;;6.53;;
6288;SDS011;3177;49.880;8.836;2024-03-02T10:51:47;8.93;;;5.63;;
6288;SDS011;3177;49.880;8.836;2024-03-02T10:54:14;7.10;;;5.80;;
6288;SDS011;3177;49.880;8.836;2024-03-02T10:56:44;8.57;;;6.23;;
6288;SDS011;3177;49.880;8.836;2024-03-02T10:59:16;8.40;;;6.03;;
6288;SDS011;3177;49.880;8.836;2024-03-02T11:01:47;9.20;;;5.57;;
6288;SDS011;3177;49.880;8.836;2024-03-02T11:04:15;4.90;;;4.40;;
6288;SDS011;3177;49.880;8.836;2024-03-02T11:06:43;5.97;;;4.30;;
6288;SDS011;3177;49.880;8.836;2024-03-02T11:09:12;6.23;;;4.50;;
6288;SDS011;3177;49.880;8.836;2024-03-02T11:11:40;5.17;;;4.13;;
6288;SDS011;3177;49.880;8.836;2024-03-02T11:14:10;5.47;;;4.00;;
6288;SDS011;3177;49.880;8.836;2024-03-02T11:16:39;4.63;;;3.83;;
6288;SDS011;3177;49.880;8.836;2024-03-02T11:19:07;5.63;;;4.63;;
6288;SDS011;3177;49.880;8.836;2024-03-02T11:21:35;4.77;;;3.83;;
6288;SDS011;3177;49.880;8.836;2024-03-02T11:26:44;5.37;;;4.40;;
6288;SDS011;3177;49.880;8.836;2024-03-02T11:29:16;3.87;;;3.10;;
6288;SDS011;3177;49.880;8.836;2024-03-02T11:32:04;4.27;;;2.77;;
6288;SDS011;3177;49.880;8.836;2024-03-02T11:34:31;4.80;;;3.00;;
6288;SDS011;3177;49.880;8.836;2024-03-02T11:36:58;2.63;;;2.40;;
6288;SDS011;3177;49.880;8.836;2024-03-02T11:39:25;2.50;;;2.30;;
6288;SDS011;3177;49.880;8.836;2024-03-02T11:41:52;2.83;;;2.47;;
6288;SDS011;3177;49.880;8.836;2024-03-02T11:44:21;2.67;;;2.47;;
6288;SDS011;3177;49.880;8.836;2024-03-02T11:46:51;2.60;;;2.33;;
6288;SDS011;3177;49.880;8.836;2024-03-02T11:49:20;3.67;;;2.67;;
6288;SDS011;3177;49.880;8.836;2024-03-02T11:52:03;3.20;;;2.10;;
6288;SDS011;3177;49.880;8.836;2024-03-02T11:54:31;4.03;;;2.77;;
6288;SDS011;3177;49.880;8.836;2024-03-02T11:56:59;3.78;;;3.25;;
6288;SDS011;3177;49.880;8.836;2024-03-02T11:59:29;3.92;;;2.92;;
6288;SDS011;3177;49.880;8.836;2024-03-02T12:01:57;4.43;;;3.67;;
6288;SDS011;3177;49.880;8.836;2024-03-02T12:04:24;3.50;;;3.20;;
6288;SDS011;3177;49.880;8.836;2024-03-02T12:06:54;3.80;;;2.70;;
6288;SDS011;3177;49.880;8.836;2024-03-02T12:09:21;2.72;;;2.50;;
6288;SDS011;3177;49.880;8.836;2024-03-02T12:12:00;2.70;;;2.50;;
6288;SDS011;3177;49.880;8.836;2024-03-02T12:14:29;3.10;;;2.55;;
6288;SDS011;3177;49.880;8.836;2024-03-02T12:16:57;2.78;;;2.40;;
6288;SDS011;3177;49.880;8.836;2024-03-02T12:19:24;2.45;;;2.25;;
6288;SDS011;3177;49.880;8.836;2024-03-02T12:21:51;2.78;;;2.58;;
6288;SDS011;3177;49.880;8.836;2024-03-02T12:24:26;2.78;;;2.47;;
6288;SDS011;3177;49.880;8.836;2024-03-02T12:26:54;2.70;;;2.42;;
6288;SDS011;3177;49.880;8.836;2024-03-02T12:29:21;4.57;;;2.50;;
6288;SDS011;3177;49.880;8.836;2024-03-02T12:31:50;2.35;;;2.10;;
6288;SDS011;3177;49.880;8.836;2024-03-02T12:34:18;2.70;;;2.50;;
6288;SDS011;3177;49.880;8.836;2024-03-02T12:36:45;4.18;;;2.47;;
6288;SDS011;3177;49.880;8.836;2024-03-02T12:39:14;3.45;;;2.72;;
6288;SDS011;3177;49.880;8.836;2024-03-02T12:41:41;3.15;;;2.78;;
6288;SDS011;3177;49.880;8.836;2024-03-02T12:44:08;2.63;;;2.22;;
6288;SDS011;3177;49.880;8.836;2024-03-02T12:46:35;3.28;;;2.63;;
6288;SDS011;3177;49.880;8.836;2024-03-02T12:49:08;2.85;;;2.60;;
6288;SDS011;3177;49.880;8.836;2024-03-02T12:51:37;2.55;;;2.38;;
6288;SDS011;3177;49.880;8.836;2024-03-02T12:54:05;3.30;;;2.25;;
6288;SDS011;3177;49.880;8.836;2024-03-02T12:56:32;2.30;;;2.10;;
6288;SDS011;3177;49.880;8.836;2024-03-02T12:58:59;2.83;;;2.53;;
6288;SDS011;3177;49.880;8.836;2024-03-02T13:01:28;2.63;;;2.40;;
6288;SDS011;3177;49.880;8.836;2024-03-02T13:03:56;2.35;;;1.88;;
6288;SDS011;3177;49.880;8.836;2024-03-02T13:06:24;2.47;;;2.22;;
6288;SDS011;3177;49.880;8.836;2024-03-02T13:08:53;3.08;;;2.28;;
6288;SDS011;3177;49.880;8.836;2024-03-02T13:11:20;2.10;;;1.85;;
6288;SDS011;3177;49.880;8.836;2024-03-02T13:13:48;2.22;;;2.03;;
6288;SDS011;3177;49.880;8.836;2024-03-02T13:16:15;3.28;;;2.05;;
6288;SDS011;3177;49.880;8.836;2024-03-02T13:18:44;2.47;;;2.08;;
6288;SDS011;3177;49.880;8.836;2024-03-02T13:21:11;2.00;;;1.77;;
6288;SDS011;3177;49.880;8.836;2024-03-02T13:23:39;3.03;;;1.77;;
6288;SDS011;3177;49.880;8.836;2024-03-02T13:26:07;1.75;;;1.65;;
6288;SDS011;3177;49.880;8.836;2024-03-02T13:28:35;1.88;;;1.77;;
6288;SDS011;3177;49.880;8.836;2024-03-02T13:31:03;1.60;;;1.50;;
6288;SDS011;3177;49.880;8.836;2024-03-02T13:33:30;2.13;;;1.92;;
6288;SDS011;3177;49.880;8.836;2024-03-02T13:35:58;2.35;;;1.73;;
6288;SDS011;3177;49.880;8.836;2024-03-02T13:38:26;2.13;;;1.92;;
6288;SDS011;3177;49.880;8.836;2024-03-02T13:40:55;1.70;;;1.58;;
6288;SDS011;3177;49.880;8.836;2024-03-02T13:43:22;1.73;;;1.63;;
6288;SDS011;3177;49.880;8.836;2024-03-02T13:45:49;1.25;;;1.15;;
6288;SDS011;3177;49.880;8.836;2024-03-02T13:48:18;1.60;;;1.50;;
6288;SDS011;3177;49.880;8.836;2024-03-02T13:50:45;1.65;;;1.55;;
6288;SDS011;3177;49.880;8.836;2024-03-02T13:53:12;1.23;;;1.20;;
6288;SDS011;3177;49.880;8.836;2024-03-02T13:55:39;1.20;;;1.10;;
6288;SDS011;3177;49.880;8.836;2024-03-02T13:58:11;1.30;;;1.13;;
6288;SDS011;3177;49.880;8.836;2024-03-02T14:00:38;3.63;;;1.27;;
6288;SDS011;3177;49.880;8.836;2024-03-02T14:03:05;2.85;;;1.10;;
6288;SDS011;3177;49.880;8.836;2024-03-02T14:05:33;1.40;;;1.20;;
6288;SDS011;3177;49.880;8.836;2024-03-02T14:08:00;5.25;;;1.20;;
6288;SDS011;3177;49.880;8.836;2024-03-02T14:10:27;1.00;;;0.93;;
6288;SDS011;3177;49.880;8.836;2024-03-02T14:12:54;0.75;;;0.75;;
6288;SDS011;3177;49.880;8.836;2024-03-02T14:15:35;1.35;;;1.25;;
6288;SDS011;3177;49.880;8.836;2024-03-02T14:18:04;1.58;;;1.00;;
6288;SDS011;3177;49.880;8.836;2024-03-02T14:20:31;1.05;;;1.05;;
6288;SDS011;3177;49.880;8.836;2024-03-02T14:22:58;0.90;;;0.90;;
6288;SDS011;3177;49.880;8.836;2024-03-02T14:25:28;1.00;;;0.90;;
6288;SDS011;3177;49.880;8.836;2024-03-02T14:27:58;3.72;;;0.98;;
6288;SDS011;3177;49.880;8.836;2024-03-02T14:30:25;0.80;;;0.70;;
6288;SDS011;3177;49.880;8.836;2024-03-02T14:33:02;0.93;;;0.82;;
6288;SDS011;3177;49.880;8.836;2024-03-02T14:35:30;1.92;;;1.00;;
6288;SDS011;3177;49.880;8.836;2024-03-02T14:37:57;0.65;;;0.45;;
6288;SDS011;3177;49.880;8.836;2024-03-02T14:40:24;0.60;;;0.60;;
6288;SDS011;3177;49.880;8.836;2024-03-02T14:42:52;0.50;;;0.40;;
6288;SDS011;3177;49.880;8.836;2024-03-02T14:45:19;0.45;;;0.45;;
6288;SDS011;3177;49.880;8.836;2024-03-02T14:50:50;0.70;;;0.70;;
6288;SDS011;3177;49.880;8.836;2024-03-02T14:53:18;0.80;;;0.80;;
6288;SDS011;3177;49.880;8.836;2024-03-02T14:55:50;1.05;;;0.50;;
6288;SDS011;3177;49.880;8.836;2024-03-02T14:58:17;0.70;;;0.70;;
6288;SDS011;3177;49.880;8.836;2024-03-02T15:00:54;0.50;;;0.50;;
6288;SDS011;3177;49.880;8.836;2024-03-02T15:03:21;0.65;;;0.65;;
6288;SDS011;3177;49.880;8.836;2024-03-02T15:05:48;0.47;;;0.47;;
6288;SDS011;3177;49.880;8.836;2024-03-02T15:08:33;0.50;;;0.50;;
6288;SDS011;3177;49.880;8.836;2024-03-02T15:11:00;0.45;;;0.43;;
6288;SDS011;3177;49.880;8.836;2024-03-02T15:13:28;0.57;;;0.57;;
6288;SDS011;3177;49.880;8.836;2024-03-02T15:16:11;0.38;;;0.38;;